Time;durP1;ratioP1;P1;durP2;ratioP2;P2;SDS_P1;SDS_P2;PMS_P1;PMS_P2;Temp;Humidity;BMP_temperature;BMP_pressure;BME280_temperature;BME280_humidity;BME280_pressure;Samples;Min_cycle;Max_cycle;Signal;HPM_P1;HPM_P2
2021/12/15 00:01:31;;;;;;;8.03;7.22;;;;;;;8.43;57.37;102139.95;1717086;83;21054;-53
2021/12/15 00:03:58;;;;;;;8.35;7.33;;;;;;;8.45;57.29;102140.84;1712309;83;21532;-53
2021/12/15 00:06:25;;;;;;;9.15;8.13;;;;;;;8.46;57.55;102143.44;1718045;83;21890;-53
2021/12/15 00:08:55;;;;;;;9.53;8.38;;;;;;;8.48;57.19;102143.44;1708789;83;21071;-53
2021/12/15 00:11:22;;;;;;;8.58;7.67;;;;;;;8.45;56.99;102156.40;1717707;82;21103;-53
2021/12/15 00:13:50;;;;;;;9.95;8.28;;;;;;;8.41;57.13;102162.41;1713696;83;21073;-53
2021/12/15 00:16:17;;;;;;;9.18;8.20;;;;;;;8.40;57.14;102160.66;1710662;82;21042;-53
2021/12/15 00:18:44;;;;;;;9.73;7.95;;;;;;;8.37;57.13;102154.13;1734170;80;21513;-53
2021/12/15 00:21:13;;;;;;;9.33;7.60;;;;;;;8.38;57.46;102158.48;1764816;80;21007;-53
2021/12/15 00:23:41;;;;;;;10.40;8.40;;;;;;;8.36;57.63;102164.08;1745642;80;21019;-53
2021/12/15 00:26:07;;;;;;;12.23;9.10;;;;;;;8.31;57.68;102150.19;1759532;80;21517;-54
2021/12/15 00:28:34;;;;;;;10.63;9.53;;;;;;;8.29;57.75;102155.78;1756203;80;21073;-52
2021/12/15 00:31:00;;;;;;;10.35;9.20;;;;;;;8.27;57.87;102158.79;1771266;80;21018;-53
2021/12/15 00:33:27;;;;;;;10.38;9.28;;;;;;;8.29;58.02;102149.30;1770874;80;21001;-53
2021/12/15 00:38:23;;;;;;;12.28;8.98;;;;;;;8.30;58.15;102145.88;1676560;84;21130;-53
2021/12/15 00:40:50;;;;;;;9.88;8.88;;;;;;;8.30;58.25;102141.98;1685418;84;21143;-53
2021/12/15 00:43:18;;;;;;;10.60;9.05;;;;;;;8.31;57.88;102133.33;1680030;83;21138;-53
2021/12/15 00:45:46;;;;;;;10.82;9.40;;;;;;;8.31;57.69;102133.33;1691900;84;21020;-53
2021/12/15 00:48:14;;;;;;;11.38;10.18;;;;;;;8.26;57.56;102128.13;1675611;83;21039;-53
2021/12/15 00:50:41;;;;;;;11.83;9.73;;;;;;;8.23;57.81;102131.52;1686839;83;21035;-54
2021/12/15 00:53:08;;;;;;;12.13;9.68;;;;;;;8.21;57.88;102142.72;1674713;85;21038;-53
2021/12/15 00:55:35;;;;;;;12.65;9.23;;;;;;;8.18;57.72;102142.25;1670573;84;21506;-53
2021/12/15 00:58:04;;;;;;;10.15;8.55;;;;;;;8.15;57.78;102144.84;1675513;84;21015;-53
2021/12/15 01:00:42;;;;;;;10.43;8.25;;;;;;;8.17;57.88;102137.94;1673226;84;21542;-53
2021/12/15 01:03:09;;;;;;;12.68;8.65;;;;;;;8.17;57.96;102146.14;1688111;84;21031;-54
2021/12/15 01:05:43;;;;;;;10.63;8.50;;;;;;;8.16;58.12;102145.27;1687016;84;21189;-53
2021/12/15 01:08:13;;;;;;;9.30;8.20;;;;;;;8.17;57.87;102143.13;1655252;86;21550;-53
2021/12/15 01:11:04;;;;;;;10.05;8.60;;;;;;;8.17;57.89;102147.44;1665863;85;21090;-53
2021/12/15 01:21:30;;;;;;;10.95;8.48;;;;;;;8.14;57.99;102137.02;1663891;84;21598;-53
2021/12/15 01:23:57;;;;;;;9.58;8.43;;;;;;;8.14;57.98;102134.01;1677387;84;21079;-52
2021/12/15 01:26:23;;;;;;;10.85;8.38;;;;;;;8.13;58.05;102143.08;1679356;84;21609;-53
2021/12/15 01:28:49;;;;;;;11.05;8.63;;;;;;;8.12;58.05;102131.83;1663447;84;21072;-53
2021/12/15 01:31:17;;;;;;;8.88;7.75;;;;;;;8.11;57.99;102135.29;1661598;84;21059;-53
2021/12/15 01:33:43;;;;;;;9.88;7.80;;;;;;;8.09;58.07;102135.70;1671139;85;21056;-53
2021/12/15 01:36:10;;;;;;;10.35;8.38;;;;;;;8.10;58.05;102128.35;1708146;83;21043;-53
2021/12/15 01:38:40;;;;;;;11.15;7.90;;;;;;;8.11;58.36;102137.88;1723214;82;21050;-53
2021/12/15 01:41:07;;;;;;;10.88;8.83;;;;;;;8.10;58.23;102135.25;1694430;83;21028;-53
2021/12/15 01:49:01;;;;;;;10.08;8.40;;;;;;;8.05;58.45;102131.34;1766331;80;21572;-53
2021/12/15 01:51:28;;;;;;;9.03;8.05;;;;;;;8.04;58.57;102134.77;1650753;86;21585;-53
2021/12/15 01:53:54;;;;;;;12.40;9.28;;;;;;;8.04;58.58;102126.99;1634295;86;21030;-53
2021/12/15 01:56:21;;;;;;;11.00;8.53;;;;;;;8.05;58.81;102131.34;1637564;85;21145;-53
2021/12/15 01:58:48;;;;;;;11.40;8.80;;;;;;;8.07;58.91;102125.75;1641898;85;21051;-53
2021/12/15 02:01:14;;;;;;;9.28;8.20;;;;;;;8.07;58.59;102130.93;1642306;85;21083;-53
2021/12/15 02:03:41;;;;;;;9.30;7.30;;;;;;;8.08;58.59;102132.66;1639302;86;21132;-53
2021/12/15 02:06:09;;;;;;;10.72;7.92;;;;;;;8.07;58.36;102134.81;1628689;86;21561;-53
2021/12/15 02:08:37;;;;;;;10.78;8.20;;;;;;;8.06;58.54;102129.59;1643735;85;21106;-54
2021/12/15 02:11:05;;;;;;;8.48;7.65;;;;;;;8.04;58.47;102143.84;1629935;86;21609;-53
2021/12/15 02:13:32;;;;;;;9.43;7.60;;;;;;;8.01;58.37;102133.45;1642054;85;21082;-53
2021/12/15 02:16:01;;;;;;;8.15;7.08;;;;;;;8.01;58.48;102129.58;1626563;86;21120;-54
2021/12/15 02:18:31;;;;;;;7.35;6.47;;;;;;;8.00;58.45;102124.34;1630706;84;21031;-53
2021/12/15 02:21:07;;;;;;;9.23;7.37;;;;;;;7.98;58.35;102128.23;1634718;86;21172;-53
2021/12/15 02:23:41;;;;;;;7.80;6.62;;;;;;;7.97;58.15;102130.39;1560205;91;21607;-53
2021/12/15 02:26:14;;;;;;;8.23;7.08;;;;;;;7.97;58.59;102139.47;1547605;92;21170;-52
2021/12/15 02:28:46;;;;;;;10.85;7.90;;;;;;;7.96;58.54;102139.01;1551535;91;21079;-53
2021/12/15 02:31:20;;;;;;;8.80;7.87;;;;;;;7.96;58.34;102135.13;1498389;93;21149;-53
2021/12/15 02:33:53;;;;;;;8.90;7.60;;;;;;;7.97;58.59;102139.89;1505233;94;21184;-53
2021/12/15 02:38:57;;;;;;;9.95;7.12;;;;;;;7.95;58.44;102144.19;1504101;94;21139;-54
2021/12/15 02:41:25;;;;;;;10.05;8.00;;;;;;;7.93;58.41;102137.66;1498340;94;21098;-54
2021/12/15 02:43:55;;;;;;;10.90;8.00;;;;;;;7.92;58.51;102146.31;1496708;95;21057;-53
2021/12/15 02:46:21;;;;;;;8.88;7.12;;;;;;;7.90;58.48;102144.12;1508963;95;21137;-53
2021/12/15 02:48:49;;;;;;;9.43;7.55;;;;;;;7.90;58.63;102142.83;1550602;89;21133;-53
2021/12/15 02:51:17;;;;;;;8.60;7.55;;;;;;;7.91;58.73;102141.96;1559937;90;21074;-53
2021/12/15 02:53:44;;;;;;;8.63;6.80;;;;;;;7.93;58.78;102140.25;1549000;90;21163;-53
2021/12/15 02:56:12;;;;;;;7.62;6.83;;;;;;;7.96;58.85;102136.41;1554425;89;21038;-53
2021/12/15 02:58:47;;;;;;;7.67;6.22;;;;;;;7.96;58.33;102144.61;1581340;89;21140;-53
2021/12/15 03:16:47;;;;;;;8.00;6.62;;;;;;;7.94;58.26;102138.13;1511959;93;21135;-54
2021/12/15 03:19:14;;;;;;;6.45;5.50;;;;;;;7.91;58.18;102135.48;1502256;93;21132;-53
2021/12/15 03:21:41;;;;;;;6.03;5.20;;;;;;;7.88;58.00;102134.17;1546317;91;21127;-53
2021/12/15 03:24:15;;;;;;;6.65;5.03;;;;;;;7.87;58.06;102127.23;1552451;91;21137;-53
2021/12/15 03:26:52;;;;;;;6.22;5.12;;;;;;;7.85;58.06;102127.64;1552847;91;21108;-54
2021/12/15 03:37:34;;;;;;;4.30;3.60;;;;;;;7.79;57.59;102132.76;1601502;88;21518;-53
2021/12/15 03:40:09;;;;;;;4.70;3.95;;;;;;;7.79;57.32;102128.87;1608666;88;21572;-55
2021/12/15 03:42:45;;;;;;;4.40;4.00;;;;;;;7.80;57.40;102124.14;1603092;88;21016;-54
2021/12/15 03:45:17;;;;;;;6.80;4.65;;;;;;;7.83;57.95;102130.64;1603622;89;21053;-53
2021/12/15 03:47:46;;;;;;;5.87;4.80;;;;;;;7.88;57.93;102128.98;1602745;89;21074;-54
2021/12/15 03:50:15;;;;;;;5.35;4.62;;;;;;;7.89;58.14;102133.30;1602453;89;21127;-53
2021/12/15 03:52:42;;;;;;;5.87;5.28;;;;;;;7.91;58.14;102131.59;1602479;89;21134;-53
2021/12/15 03:55:09;;;;;;;6.25;5.42;;;;;;;7.88;58.04;102136.77;1602380;89;21125;-54
2021/12/15 03:57:36;;;;;;;5.75;5.15;;;;;;;7.85;58.22;102134.13;1602455;89;21086;-53
2021/12/15 04:00:08;;;;;;;6.67;5.15;;;;;;;7.85;58.37;102130.23;1605828;88;21557;-53
2021/12/15 04:02:37;;;;;;;4.47;4.08;;;;;;;7.84;58.63;102129.80;1620468;88;21076;-53
2021/12/15 04:05:07;;;;;;;4.80;4.40;;;;;;;7.85;58.88;102135.41;1647874;83;21018;-53
2021/12/15 04:07:35;;;;;;;4.90;3.98;;;;;;;7.86;58.75;102125.51;1722941;83;21575;-53
2021/12/15 04:10:07;;;;;;;4.22;3.83;;;;;;;7.88;58.32;102126.39;1722842;83;21604;-55
2021/12/15 04:12:35;;;;;;;4.28;3.80;;;;;;;7.87;58.04;102122.05;1722575;83;21006;-55
2021/12/15 04:17:49;;;;;;;4.65;4.15;;;;;;;7.86;57.68;102128.10;1722903;83;21078;-54
2021/12/15 04:20:19;;;;;;;4.67;3.85;;;;;;;7.86;57.82;102126.80;1722802;83;21076;-53
2021/12/15 04:22:46;;;;;;;5.78;3.92;;;;;;;7.88;57.85;102141.95;1722845;83;21045;-55
2021/12/15 04:25:24;;;;;;;3.70;3.37;;;;;;;7.91;57.81;102135.48;1722962;83;21049;-53
2021/12/15 04:28:11;;;;;;;4.33;3.75;;;;;;;7.93;57.98;102127.30;1722181;83;21053;-55
2021/12/15 04:30:45;;;;;;;3.62;3.33;;;;;;;7.93;57.41;102129.89;1720314;83;21524;-52
2021/12/15 04:33:20;;;;;;;4.35;3.95;;;;;;;7.91;56.87;102134.64;1722823;83;21017;-55
2021/12/15 04:35:49;;;;;;;4.37;3.20;;;;;;;7.86;57.32;102130.69;1678025;85;21104;-54
2021/12/15 04:38:15;;;;;;;3.20;2.87;;;;;;;7.86;57.11;102133.28;1648339;86;21054;-53
2021/12/15 04:40:42;;;;;;;3.67;3.00;;;;;;;7.83;57.10;102135.83;1652220;87;21097;-55
2021/12/15 04:43:08;;;;;;;3.40;3.10;;;;;;;7.79;57.33;102137.94;1652100;87;22330;-55
2021/12/15 04:45:35;;;;;;;3.77;2.85;;;;;;;7.79;57.49;102141.83;1693074;84;21017;-52
2021/12/15 04:48:02;;;;;;;3.50;3.20;;;;;;;7.78;57.36;102143.11;1724006;82;21559;-54
2021/12/15 04:50:30;;;;;;;3.72;2.80;;;;;;;7.77;57.43;102142.69;1730274;82;20997;-55
2021/12/15 04:53:00;;;;;;;3.35;3.05;;;;;;;7.73;57.61;102139.16;1722800;82;21061;-55
2021/12/15 04:55:28;;;;;;;3.30;2.83;;;;;;;7.70;57.70;102141.73;1733685;81;21140;-54
2021/12/15 04:57:57;;;;;;;2.65;2.45;;;;;;;7.66;57.83;102142.55;1733794;82;21031;-54
2021/12/15 05:00:28;;;;;;;3.05;2.75;;;;;;;7.64;57.82;102142.96;1723720;81;21077;-54
2021/12/15 05:02:56;;;;;;;3.67;2.92;;;;;;;7.63;57.92;102145.09;1728743;81;21036;-54
2021/12/15 05:05:23;;;;;;;3.70;3.10;;;;;;;7.64;58.16;102145.55;1726900;82;21593;-54
2021/12/15 05:07:50;;;;;;;3.92;3.30;;;;;;;7.64;58.09;102144.26;1725270;81;21057;-54
2021/12/15 05:10:19;;;;;;;3.17;2.87;;;;;;;7.65;57.95;102151.16;1733647;82;21494;-54
2021/12/15 05:12:46;;;;;;;3.92;3.52;;;;;;;7.60;58.11;102150.25;1737573;82;21010;-54
2021/12/15 05:15:13;;;;;;;3.77;3.40;;;;;;;7.60;58.36;102152.84;1730460;81;21069;-55
2021/12/15 05:17:40;;;;;;;4.05;3.65;;;;;;;7.61;58.60;102151.98;1732380;82;21122;-56
2021/12/15 05:20:08;;;;;;;4.42;3.60;;;;;;;7.63;58.63;102144.22;1727106;81;21602;-54
2021/12/15 05:22:36;;;;;;;4.20;3.80;;;;;;;7.62;58.62;102143.37;1726653;82;21026;-54
2021/12/15 05:25:05;;;;;;;3.83;3.52;;;;;;;7.62;58.66;102140.78;1725869;81;21086;-54
2021/12/15 05:27:33;;;;;;;3.65;3.35;;;;;;;7.61;58.78;102139.44;1728545;82;21014;-53
2021/12/15 05:29:59;;;;;;;4.62;4.22;;;;;;;7.60;58.53;102142.48;1722470;82;21029;-54
2021/12/15 05:32:25;;;;;;;4.72;4.22;;;;;;;7.58;58.54;102141.59;1740776;80;21096;-54
2021/12/15 05:34:56;;;;;;;6.00;4.10;;;;;;;7.56;58.16;102140.70;1743767;81;21038;-54
2021/12/15 05:37:23;;;;;;;4.72;4.33;;;;;;;7.53;58.11;102145.83;1759946;80;21550;-54
2021/12/15 05:39:51;;;;;;;5.45;4.50;;;;;;;7.50;57.96;102140.59;1763844;80;21039;-53
2021/12/15 05:42:19;;;;;;;4.85;4.05;;;;;;;7.45;58.14;102141.40;1759461;80;21045;-54
2021/12/15 05:44:47;;;;;;;4.60;4.20;;;;;;;7.42;58.38;102152.58;1755020;80;21030;-54
2021/12/15 05:47:13;;;;;;;4.97;4.22;;;;;;;7.42;58.71;102155.63;1755127;80;20964;-54
2021/12/15 05:49:40;;;;;;;5.15;4.65;;;;;;;7.38;59.22;102155.98;1761916;80;21081;-54
2021/12/15 05:52:07;;;;;;;5.95;5.35;;;;;;;7.37;59.15;102151.67;1767984;80;21073;-54
2021/12/15 05:54:35;;;;;;;7.25;5.67;;;;;;;7.35;59.28;102140.42;1753318;80;21117;-54
2021/12/15 05:57:01;;;;;;;7.08;6.28;;;;;;;7.34;59.30;102141.25;1750785;80;21117;-54
2021/12/15 05:59:28;;;;;;;6.62;5.47;;;;;;;7.33;59.64;102140.41;1768630;80;21053;-54
2021/12/15 06:01:55;;;;;;;6.28;5.35;;;;;;;7.35;59.55;102153.37;1771147;80;21017;-54
2021/12/15 06:04:21;;;;;;;6.87;5.70;;;;;;;7.36;59.83;102152.50;1751129;80;21023;-54
2021/12/15 06:06:48;;;;;;;6.12;5.28;;;;;;;7.37;59.89;102156.84;1751172;80;21038;-54
2021/12/15 06:09:15;;;;;;;6.95;5.90;;;;;;;7.40;59.85;102150.39;1767520;80;21459;-55
2021/12/15 06:11:43;;;;;;;6.60;6.00;;;;;;;7.41;59.60;102146.97;1754827;80;21058;-54
2021/12/15 06:14:10;;;;;;;7.22;5.95;;;;;;;7.43;59.75;102145.27;1760082;80;21534;-54
2021/12/15 06:16:37;;;;;;;6.72;5.33;;;;;;;7.43;59.45;102149.16;1763301;80;21017;-54
2021/12/15 06:19:04;;;;;;;5.67;5.05;;;;;;;7.43;59.55;102149.16;1751263;80;21062;-55
2021/12/15 06:21:33;;;;;;;5.30;4.80;;;;;;;7.47;59.57;102150.94;1764363;80;21031;-54
2021/12/15 06:24:00;;;;;;;5.65;5.08;;;;;;;7.50;59.54;102150.95;1769036;80;21007;-55
2021/12/15 06:26:27;;;;;;;6.78;4.42;;;;;;;7.60;59.36;102154.55;1757711;80;21054;-54
2021/12/15 06:28:54;;;;;;;5.47;4.90;;;;;;;7.62;59.36;102155.03;1756645;80;20987;-54
2021/12/15 06:31:20;;;;;;;4.75;4.00;;;;;;;7.62;59.67;102166.69;1757393;81;21002;-54
2021/12/15 06:33:47;;;;;;;4.30;3.90;;;;;;;7.61;59.68;102162.34;1752181;80;20987;-54
2021/12/15 06:36:20;;;;;;;4.25;3.85;;;;;;;7.71;59.62;102163.31;1768070;80;21092;-54
2021/12/15 06:38:45;;;;;;;5.12;3.60;;;;;;;7.74;59.34;102159.06;1768519;80;21081;-54
2021/12/15 06:41:12;;;;;;;4.22;3.83;;;;;;;7.75;59.41;102163.38;1784335;80;21010;-54
2021/12/15 06:43:42;;;;;;;3.85;3.35;;;;;;;7.78;59.41;102178.97;1784291;80;20999;-56
2021/12/15 06:59:42;;;;;;;4.00;3.30;;;;;;;7.79;59.95;102189.77;1768320;80;21498;-55
2021/12/15 07:02:10;;;;;;;4.83;4.10;;;;;;;7.77;59.93;102186.28;1716963;83;21523;-54
2021/12/15 07:04:36;;;;;;;4.35;3.80;;;;;;;7.76;59.98;102178.08;1714760;82;20986;-54
2021/12/15 07:07:04;;;;;;;4.33;3.87;;;;;;;7.75;60.16;102185.84;1698414;83;21050;-54
2021/12/15 07:09:31;;;;;;;5.87;4.25;;;;;;;7.76;60.21;102188.45;1687910;83;21524;-55
2021/12/15 07:11:58;;;;;;;7.28;5.53;;;;;;;7.75;60.27;102189.28;1772833;80;21041;-55
2021/12/15 07:14:25;;;;;;;6.78;5.75;;;;;;;7.75;60.06;102191.03;1757592;80;21014;-54
2021/12/15 07:16:54;;;;;;;5.15;4.25;;;;;;;7.69;59.92;102193.09;1762694;80;20998;-54
2021/12/15 07:19:31;;;;;;;7.37;5.47;;;;;;;7.84;59.62;102192.00;1777973;80;21047;-55
2021/12/15 07:22:04;;;;;;;5.25;4.55;;;;;;;7.82;59.38;102196.30;1745798;80;21529;-54
2021/12/15 07:24:20;;;;;;;;;;;;;;;7.78;59.05;102202.30;1740594;81;20990;-54
2021/12/15 07:26:48;;;;;;;7.62;4.47;;;;;;;7.77;59.12;102197.94;1765132;80;20140;-55
2021/12/15 07:29:15;;;;;;;7.80;4.95;;;;;;;7.77;59.21;102205.72;1752319;80;21057;-54
2021/12/15 07:31:41;;;;;;;5.80;4.42;;;;;;;7.77;59.28;102204.42;1755794;80;21058;-55
2021/12/15 07:34:08;;;;;;;5.17;4.35;;;;;;;7.76;59.09;102206.59;1759993;80;20998;-54
2021/12/15 07:36:35;;;;;;;4.55;4.15;;;;;;;7.78;59.25;102206.18;1752902;80;21053;-54
2021/12/15 07:39:01;;;;;;;3.75;3.00;;;;;;;7.79;59.20;102215.67;1759609;80;21075;-54
2021/12/15 07:41:35;;;;;;;4.50;3.95;;;;;;;7.79;59.16;102209.20;1745132;80;21592;-54
2021/12/15 07:43:59;;;;;;;4.67;3.50;;;;;;;7.81;59.09;102219.61;1746063;80;21034;-54
2021/12/15 07:46:26;;;;;;;3.52;3.22;;;;;;;7.79;59.04;102211.78;1771850;80;20990;-54
2021/12/15 07:48:53;;;;;;;4.30;3.20;;;;;;;7.80;58.80;102213.55;1780388;80;21627;-55
2021/12/15 07:51:19;;;;;;;4.30;3.90;;;;;;;7.83;58.99;102212.27;1766183;80;21031;-54
2021/12/15 07:53:46;;;;;;;3.90;3.47;;;;;;;7.85;58.95;102214.45;1755594;80;21031;-54
2021/12/15 07:56:12;;;;;;;3.98;3.58;;;;;;;7.88;58.91;102212.34;1761229;80;21018;-54
2021/12/15 07:58:39;;;;;;;12.15;7.10;;;;;;;7.89;58.76;102220.57;1756868;80;21561;-55
2021/12/15 08:01:06;;;;;;;7.55;5.58;;;;;;;7.91;58.68;102212.39;1763103;80;21026;-54
2021/12/15 08:03:35;;;;;;;6.60;5.20;;;;;;;7.93;58.76;102211.98;1759764;80;21069;-54
2021/12/15 08:06:03;;;;;;;5.40;3.98;;;;;;;7.89;58.26;102216.23;1775734;80;20994;-55
2021/12/15 08:08:30;;;;;;;5.05;4.28;;;;;;;7.87;58.68;102217.94;1747785;80;21105;-54
2021/12/15 08:10:57;;;;;;;4.60;4.10;;;;;;;7.88;58.84;102217.10;1772975;80;21494;-55
2021/12/15 08:13:28;;;;;;;4.85;3.83;;;;;;;7.90;58.81;102220.58;1771808;80;21042;-55
2021/12/15 08:15:55;;;;;;;4.30;3.87;;;;;;;7.87;58.25;102205.43;1721361;82;21002;-54
2021/12/15 08:18:22;;;;;;;4.72;3.87;;;;;;;7.86;58.16;102212.33;1753628;80;21030;-54
2021/12/15 08:20:50;;;;;;;4.60;4.05;;;;;;;7.86;58.50;102216.21;1749251;80;20987;-54
2021/12/15 08:23:18;;;;;;;4.30;3.22;;;;;;;7.87;58.54;102207.57;1764262;80;21132;-54
2021/12/15 08:25:45;;;;;;;4.45;3.52;;;;;;;7.88;58.51;102202.84;1747686;80;21078;-54
2021/12/15 08:28:11;;;;;;;5.12;4.37;;;;;;;7.91;58.54;102194.25;1751763;80;21541;-55
2021/12/15 08:30:39;;;;;;;4.80;3.92;;;;;;;7.90;58.49;102192.08;1761432;80;21002;-54
2021/12/15 08:33:10;;;;;;;4.60;4.10;;;;;;;7.92;58.61;102198.14;1764136;80;21021;-54
2021/12/15 08:35:46;;;;;;;3.83;3.12;;;;;;;7.92;58.57;102198.14;1752618;80;21046;-54
2021/12/15 08:38:13;;;;;;;3.47;3.00;;;;;;;7.97;58.36;102197.78;1756629;80;21069;-54
2021/12/15 08:40:40;;;;;;;6.58;3.33;;;;;;;8.00;58.20;102180.95;1771278;80;21002;-54
2021/12/15 08:43:08;;;;;;;4.00;3.42;;;;;;;8.01;58.00;102189.61;1784028;80;21019;-54
2021/12/15 08:45:38;;;;;;;4.17;3.55;;;;;;;8.34;57.22;102185.24;1739116;80;21088;-54
2021/12/15 08:48:05;;;;;;;5.15;3.72;;;;;;;8.46;56.85;102184.06;1760874;80;21034;-54
2021/12/15 08:50:34;;;;;;;3.62;3.12;;;;;;;8.52;56.80;102184.99;1762489;80;21034;-54
2021/12/15 08:53:04;;;;;;;3.85;3.05;;;;;;;8.56;56.22;102179.39;1750393;80;21494;-54
2021/12/15 08:55:31;;;;;;;3.92;3.17;;;;;;;8.57;55.94;102177.26;1760859;80;21003;-54
2021/12/15 08:57:59;;;;;;;3.65;3.27;;;;;;;8.54;55.90;102166.84;1683828;83;21126;-54
2021/12/15 09:00:26;;;;;;;3.15;2.70;;;;;;;8.51;56.02;102164.23;1687400;83;21017;-53
2021/12/15 09:05:26;;;;;;;3.37;3.08;;;;;;;8.52;55.96;102156.88;1673281;84;21094;-52
2021/12/15 09:07:55;;;;;;;5.05;4.15;;;;;;;8.50;55.80;102152.98;1666596;85;21094;-55
2021/12/15 09:10:24;;;;;;;4.53;3.65;;;;;;;7.99;57.35;102161.50;1682052;84;21533;-55
2021/12/15 09:12:51;;;;;;;4.15;3.58;;;;;;;7.82;57.90;102150.95;1678630;85;21522;-52
2021/12/15 09:15:17;;;;;;;5.65;4.50;;;;;;;7.79;58.06;102157.38;1672912;85;21098;-55
2021/12/15 09:17:44;;;;;;;5.03;4.28;;;;;;;7.78;58.44;102152.18;1667430;85;21090;-52
2021/12/15 09:20:14;;;;;;;4.75;4.20;;;;;;;7.78;58.22;102150.89;1675641;85;21079;-55
2021/12/15 09:22:40;;;;;;;4.95;4.15;;;;;;;7.75;58.46;102153.01;1652773;85;21022;-54
2021/12/15 09:25:09;;;;;;;6.15;4.70;;;;;;;7.75;58.51;102153.01;1669713;84;20988;-55
2021/12/15 09:27:37;;;;;;;5.30;4.25;;;;;;;7.76;58.74;102148.70;1681800;85;21102;-53
2021/12/15 09:30:07;;;;;;;5.75;4.90;;;;;;;7.76;58.75;102149.58;1660656;85;21108;-53
2021/12/15 09:32:34;;;;;;;5.15;4.28;;;;;;;7.76;58.91;102153.89;1684936;84;21021;-54
2021/12/15 09:35:01;;;;;;;5.72;4.50;;;;;;;7.74;58.98;102156.47;1680638;84;21510;-54
2021/12/15 09:37:28;;;;;;;6.70;5.97;;;;;;;7.75;59.18;102143.94;1660882;85;21062;-55
2021/12/15 09:39:56;;;;;;;5.62;4.60;;;;;;;7.76;59.06;102140.93;1659323;85;21106;-55
2021/12/15 09:42:30;;;;;;;7.53;5.42;;;;;;;7.77;59.04;102153.89;1666885;84;21090;-55
2021/12/15 09:44:57;;;;;;;6.22;5.30;;;;;;;7.79;59.14;102143.58;1673557;85;21081;-54
2021/12/15 10:03:35;;;;;;;9.35;5.17;;;;;;;7.80;58.71;102137.10;1647446;86;21500;-55
2021/12/15 10:06:07;;;;;;;7.33;6.08;;;;;;;7.81;58.84;102132.34;1657575;86;21076;-53
2021/12/15 10:19:33;;;;;;;10.85;6.58;;;;;;;7.82;58.85;102126.33;1654369;86;21175;-53
2021/12/15 10:22:38;;;;;;;8.78;6.33;;;;;;;7.83;59.11;102144.05;1649148;86;21105;-54
2021/12/15 10:25:16;;;;;;;12.58;8.13;;;;;;;7.82;58.88;102123.73;1650535;86;21047;-55
2021/12/15 10:30:34;;;;;;;12.15;8.60;;;;;;;7.83;59.29;102122.87;1640442;87;21017;-53
2021/12/15 10:33:20;;;;;;;9.88;8.25;;;;;;;7.87;59.26;102127.23;1640827;87;21002;-53
2021/12/15 10:36:03;;;;;;;15.75;9.50;;;;;;;7.87;58.92;102115.56;1634635;87;21501;-53
2021/12/15 10:38:45;;;;;;;9.15;6.90;;;;;;;7.86;58.73;102120.33;1640424;87;21108;-53
2021/12/15 10:41:36;;;;;;;8.60;5.72;;;;;;;7.83;58.48;102117.69;1640289;87;21101;-53
2021/12/15 10:44:13;;;;;;;7.65;5.28;;;;;;;7.84;58.59;102118.14;1576544;90;21716;-52
2021/12/15 10:46:49;;;;;;;7.28;5.75;;;;;;;7.89;58.87;102119.05;1589163;89;21028;-53
2021/12/15 10:49:26;;;;;;;6.80;5.55;;;;;;;7.87;58.67;102116.02;1599928;89;21057;-53
2021/12/15 10:52:04;;;;;;;7.87;6.03;;;;;;;7.88;58.75;102120.33;1569368;90;21565;-53
2021/12/15 10:54:40;;;;;;;8.30;5.83;;;;;;;7.89;58.82;102119.50;1561598;91;21108;-53
2021/12/15 10:57:11;;;;;;;10.10;6.20;;;;;;;7.89;58.55;102117.75;1558542;90;21061;-53
2021/12/15 10:59:48;;;;;;;7.47;5.90;;;;;;;7.91;58.67;102113.45;1513003;94;21160;-53
2021/12/15 11:02:21;;;;;;;10.20;6.22;;;;;;;7.91;58.43;102100.49;1501433;94;21191;-53
2021/12/15 11:04:49;;;;;;;8.75;5.17;;;;;;;7.90;57.88;102115.62;1514418;94;21076;-53
2021/12/15 11:07:40;;;;;;;9.38;5.47;;;;;;;7.89;57.77;102102.20;1514253;94;21641;-53
2021/12/15 11:10:28;;;;;;;6.83;5.37;;;;;;;7.90;57.88;102098.77;1491686;95;21058;-53
2021/12/15 11:13:00;;;;;;;8.65;6.08;;;;;;;7.93;57.85;102093.60;1476753;95;21069;-53
2021/12/15 11:15:40;;;;;;;6.58;5.35;;;;;;;7.95;57.53;102091.92;1477872;95;21053;-52
2021/12/15 11:18:20;;;;;;;8.85;6.45;;;;;;;7.94;57.49;102094.06;1445201;97;21313;-53
2021/12/15 11:20:51;;;;;;;9.40;6.62;;;;;;;7.95;57.39;102089.34;1424381;100;21141;-53
2021/12/15 11:23:20;;;;;;;9.35;7.62;;;;;;;7.98;57.66;102090.64;1474773;96;21093;-53
2021/12/15 11:25:58;;;;;;;10.13;7.12;;;;;;;8.00;57.42;102082.45;1445920;98;21113;-52
2021/12/15 11:28:28;;;;;;;8.38;6.40;;;;;;;7.98;57.30;102086.76;1466928;97;21141;-53
2021/12/15 11:31:08;;;;;;;8.90;7.22;;;;;;;7.98;57.32;102098.42;1462318;97;21100;-53
2021/12/15 11:33:51;;;;;;;8.43;6.85;;;;;;;7.99;57.29;102089.80;1460042;97;21165;-53
2021/12/15 11:36:29;;;;;;;9.25;7.60;;;;;;;7.99;57.53;102096.29;1460607;97;21105;-53
2021/12/15 11:39:04;;;;;;;8.83;6.85;;;;;;;8.01;57.63;102088.52;1463846;96;21177;-52
2021/12/15 11:41:46;;;;;;;9.60;6.65;;;;;;;8.03;57.74;102098.05;1459236;97;21093;-52
2021/12/15 11:44:21;;;;;;;10.50;7.47;;;;;;;8.04;57.55;102084.22;1454990;97;21197;-53
2021/12/15 11:46:54;;;;;;;10.70;8.53;;;;;;;8.04;57.59;102084.22;1436872;98;21134;-53
2021/12/15 11:49:29;;;;;;;10.88;8.58;;;;;;;8.03;57.50;102079.03;1471192;96;21401;-53
2021/12/15 11:52:01;;;;;;;11.33;8.63;;;;;;;7.99;57.20;102084.63;1478654;96;21175;-53
2021/12/15 11:54:39;;;;;;;8.83;7.60;;;;;;;7.97;57.44;102082.45;1484280;96;21094;-53
2021/12/15 11:57:27;;;;;;;11.10;7.47;;;;;;;7.97;57.83;102085.03;1445568;96;21146;-52
2021/12/15 11:59:59;;;;;;;9.60;6.80;;;;;;;8.00;57.72;102082.45;1437339;99;21628;-52
2021/12/15 12:02:34;;;;;;;8.73;6.83;;;;;;;8.00;57.54;102078.57;1437363;99;21168;-53
2021/12/15 12:05:11;;;;;;;10.18;7.17;;;;;;;7.98;57.51;102090.64;1437701;99;21149;-53
2021/12/15 12:07:47;;;;;;;8.85;6.58;;;;;;;7.99;57.74;102090.23;1427103;100;21120;-54
2021/12/15 12:10:25;;;;;;;8.58;6.87;;;;;;;8.01;57.41;102089.39;1411338;101;22512;-54
2021/12/15 12:13:03;;;;;;;9.58;7.30;;;;;;;8.01;57.35;102094.58;1388035;103;21143;-53
2021/12/15 12:15:27;;;;;;;9.73;7.50;;;;;;;8.03;57.49;102091.99;1401457;101;21111;-53
2021/12/15 12:18:09;;;;;;;8.28;6.97;;;;;;;8.04;57.75;102085.52;1354831;105;21145;-53
2021/12/15 12:20:44;;;;;;;7.70;6.40;;;;;;;8.07;57.87;102081.67;1354161;105;21627;-53
2021/12/15 12:23:17;;;;;;;8.03;6.33;;;;;;;8.13;57.67;102090.80;1386272;102;21173;-53
2021/12/15 12:25:47;;;;;;;9.25;6.33;;;;;;;8.15;57.27;102089.52;1397704;102;21199;-53
2021/12/15 12:28:24;;;;;;;10.43;6.83;;;;;;;8.12;57.08;102086.88;1375893;103;21117;-53
2021/12/15 12:30:56;;;;;;;8.53;6.05;;;;;;;8.09;56.95;102082.56;1378266;103;21133;-53
2021/12/15 12:33:23;;;;;;;7.73;5.57;;;;;;;8.08;57.00;102090.30;1331275;108;21157;-53
2021/12/15 12:35:54;;;;;;;8.75;6.03;;;;;;;8.08;56.82;102093.77;1319383;107;21191;-53
2021/12/15 12:38:24;;;;;;;6.33;4.80;;;;;;;8.09;56.73;102086.45;1287062;110;21193;-53
2021/12/15 12:41:05;;;;;;;7.37;4.92;;;;;;;8.09;56.53;102098.11;1289634;110;21292;-53
2021/12/15 12:43:40;;;;;;;6.30;5.00;;;;;;;8.09;56.33;102090.75;1288655;111;21240;-52
2021/12/15 13:04:41;;;;;;;8.68;6.72;;;;;;;8.07;57.03;102099.82;1184750;119;21280;-54
2021/12/15 13:07:09;;;;;;;11.73;8.23;;;;;;;8.12;57.29;102098.13;1217492;116;21693;-54
2021/12/15 13:09:49;;;;;;;9.88;7.40;;;;;;;8.14;57.50;102109.38;1225963;114;21235;-55
2021/12/15 13:12:21;;;;;;;9.10;7.30;;;;;;;8.12;57.44;102099.42;1218955;116;21263;-53
2021/12/15 13:14:49;;;;;;;11.38;7.60;;;;;;;8.09;57.37;102107.19;1239091;113;21188;-53
2021/12/15 13:17:25;;;;;;;8.63;6.80;;;;;;;8.07;57.22;102114.08;1264110;113;21744;-53
2021/12/15 13:19:51;;;;;;;9.15;6.90;;;;;;;8.05;57.26;102120.97;1218848;116;21257;-53
2021/12/15 13:31:19;;;;;;;7.65;6.70;;;;;;;8.00;57.42;102118.74;1188158;116;21751;-54
2021/12/15 13:33:50;;;;;;;8.38;6.90;;;;;;;8.00;57.46;102120.46;1204780;117;21273;-53
2021/12/15 13:36:33;;;;;;;9.73;6.95;;;;;;;8.00;57.39;102118.74;1244026;114;21216;-53
2021/12/15 13:39:12;;;;;;;10.55;7.35;;;;;;;8.01;57.07;102115.31;1253178;114;21312;-54
2021/12/15 13:44:47;;;;;;;10.88;7.50;;;;;;;8.05;56.98;102108.02;1279586;106;21230;-53
2021/12/15 13:47:22;;;;;;;9.83;7.22;;;;;;;8.06;56.93;102118.80;1332999;107;21682;-53